KBQK/BQK METAR and TAF weather

Enter ICAO airport designator
Station Type Date Time Source
KBQK METAR 2019/11/18 09:15 UTC NOAA

KBQK 180915Z AUTO 00000KT 10SM OVC060 10/09 A2985 RMK AO2 T01010092


Station Type Date Time Source
KBQK Decoded METAR 2019/11/18 09:15 UTC NOAA

Brunswick / Glynco, GA, United States (KBQK) 31-15N 081-28W
Nov 18, 2019 - 04:15 AM EST / 2019.11.18 0915 UTC
Wind: Calm:0
Visibility: 10 mile(s):0
Sky conditions: overcast
Temperature: 50.2 F (10.1 C)
Dew Point: 48.6 F (9.2 C)
Relative Humidity: 94%
Pressure (altimeter): 29.85 in. Hg (1010 hPa)
ob: KBQK 180915Z AUTO 00000KT 10SM OVC060 10/09 A2985 RMK AO2 T01010092
cycle: 9

Station Type Date Time Source
KBQK TAF UTC NOAA

Error!

Example: see airport list